Stratford, Washington
Current Conditions -  °F | °C
As of 3:53 PM on Friday 24 Oct 2014 (Local Time) from KEPH Reporting Station
Clear Clear  
Wind Chill: 55°   Ceiling: Unl
Heat Index: 55°   Visibility: 10mi
Dew Point: 42°   Wind: 7mph
Humidity: 62%   Direction: 30°NNE
Pressure: 30.02"   Gusts: NA
Location:  47.43°N, 119.29°W
Report Text: KEPH 242253Z AUTO 03006KT 10SM CLR 13/06 A3002 RMK AO2 SLP170 T01280056
Loading
Personal Weather Stations






























Interactive Weather Map
Tropical Storm Tracking
New forecast layout! Learn more

10-Day Weather Forecast

Advertisements
Track Severe Weather on mobile